Time;durP1;ratioP1;P1;durP2;ratioP2;P2;SDS_P1;SDS_P2;PMS_P1;PMS_P2;Temp;Humidity;BMP_temperature;BMP_pressure;BME280_temperature;BME280_humidity;BME280_pressure;Samples;Min_cycle;Max_cycle;Signal;HPM_P1;HPM_P2
2021/09/03 00:00:54;;;;;;;29.53;23.20;;;;;;;12.41;94.02;102192.53;2090070;28;20314;-64
2021/09/03 00:01:54;;;;;;;31.63;23.13;;;;;;;12.40;93.79;102197.81;2090096;28;20070;-65
2021/09/03 00:02:54;;;;;;;33.63;23.50;;;;;;;12.40;94.09;102189.97;2090092;28;20386;-66
2021/09/03 00:03:55;;;;;;;37.47;23.80;;;;;;;12.43;93.98;102193.38;2090107;28;20435;-65
2021/09/03 00:04:55;;;;;;;34.45;23.90;;;;;;;12.42;94.77;102185.56;2090196;28;20051;-66
2021/09/03 00:05:55;;;;;;;32.70;24.30;;;;;;;12.45;94.42;102190.69;2090183;28;20025;-66
2021/09/03 00:06:55;;;;;;;32.63;21.13;;;;;;;12.42;94.67;102190.78;2090051;28;20024;-65
2021/09/03 00:07:56;;;;;;;31.87;22.87;;;;;;;12.43;94.86;102182.03;2089411;28;20031;-65
2021/09/03 00:08:56;;;;;;;31.00;23.57;;;;;;;12.41;94.58;102183.81;2089502;28;20603;-64
2021/09/03 00:09:56;;;;;;;31.10;22.20;;;;;;;12.42;94.79;102185.56;2090126;28;20147;-66
2021/09/03 00:10:57;;;;;;;32.97;23.63;;;;;;;12.39;94.27;102180.41;2090073;28;20048;-65
2021/09/03 00:11:57;;;;;;;29.73;21.80;;;;;;;12.38;94.07;102187.38;2090124;28;20025;-65
2021/09/03 00:12:57;;;;;;;34.63;24.43;;;;;;;12.39;94.35;102180.41;2089343;28;20111;-65
2021/09/03 00:13:57;;;;;;;32.50;23.60;;;;;;;12.36;94.78;102184.81;2089519;28;20072;-65
2021/09/03 00:14:58;;;;;;;31.43;24.60;;;;;;;12.35;94.74;102185.72;2090105;28;20279;-65
2021/09/03 00:15:58;;;;;;;33.63;24.67;;;;;;;12.38;95.15;102192.63;2089922;28;20434;-65
2021/09/03 00:16:59;;;;;;;30.17;23.73;;;;;;;12.38;95.09;102186.56;2089431;28;20029;-64
2021/09/03 00:18:02;;;;;;;37.00;22.73;;;;;;;12.36;94.99;102191.81;2089478;28;20565;-65
2021/09/03 00:19:04;;;;;;;33.47;22.10;;;;;;;12.33;94.71;102177.06;2090117;28;20028;-65
2021/09/03 00:20:07;;;;;;;31.23;23.38;;;;;;;12.33;95.19;102190.16;2081137;28;20030;-65
2021/09/03 00:21:07;;;;;;;35.65;23.52;;;;;;;12.30;94.96;102179.78;2081570;28;20037;-65
2021/09/03 00:22:08;;;;;;;30.60;22.47;;;;;;;12.29;94.50;102174.56;2089970;28;20060;-65
2021/09/03 00:23:08;;;;;;;31.20;22.65;;;;;;;12.28;94.59;102183.34;2089954;28;20103;-65
2021/09/03 00:24:08;;;;;;;32.00;22.03;;;;;;;12.26;94.69;102180.75;2089283;28;20476;-65
2021/09/03 00:25:10;;;;;;;32.57;22.60;;;;;;;12.26;94.91;102180.75;2089505;28;20096;-65
2021/09/03 00:26:10;;;;;;;;;;;;;;;12.28;95.02;102183.34;2081479;28;20478;-64
2021/09/03 00:27:10;;;;;;;29.98;20.88;;;;;;;12.27;94.79;102181.59;2081187;28;19909;-65
2021/09/03 00:28:10;;;;;;;27.23;20.47;;;;;;;12.26;94.67;102179.88;2089362;28;20072;-65
2021/09/03 00:29:11;;;;;;;32.80;24.47;;;;;;;12.25;94.57;102178.19;2090041;28;20021;-65
2021/09/03 00:30:11;;;;;;;31.03;21.87;;;;;;;12.24;94.36;102179.94;2089994;28;20428;-65
2021/09/03 00:31:12;;;;;;;29.63;23.02;;;;;;;12.26;94.62;102174.66;2089993;28;20017;-65
2021/09/03 00:32:12;;;;;;;28.00;21.47;;;;;;;12.23;94.97;102180.84;2090006;28;20028;-64
2021/09/03 00:33:12;;;;;;;29.20;23.27;;;;;;;12.23;95.12;102176.47;2090075;28;20025;-65
2021/09/03 00:34:12;;;;;;;27.83;21.80;;;;;;;12.22;95.12;102169.50;2089992;28;20088;-65
2021/09/03 00:35:13;;;;;;;32.20;23.60;;;;;;;12.22;94.59;102176.50;2090038;28;20053;-65
2021/09/03 00:36:13;;;;;;;35.27;23.53;;;;;;;12.21;94.36;102169.53;2089956;28;20031;-65
2021/09/03 00:37:14;;;;;;;34.20;23.40;;;;;;;12.19;94.72;102168.75;2089942;28;20279;-65
2021/09/03 00:38:14;;;;;;;31.55;23.35;;;;;;;12.20;95.30;102170.44;2089955;28;20064;-65
2021/09/03 00:39:15;;;;;;;29.83;23.03;;;;;;;12.17;94.38;102170.53;2089991;28;20024;-65
2021/09/03 00:40:15;;;;;;;38.60;24.37;;;;;;;12.16;94.54;102163.59;2089957;28;20021;-64
2021/09/03 00:41:15;;;;;;;31.40;20.97;;;;;;;12.16;95.02;102174.06;2089999;28;20063;-64
2021/09/03 00:42:15;;;;;;;33.07;22.93;;;;;;;12.17;94.60;102165.28;2089900;28;20112;-65
2021/09/03 00:43:15;;;;;;;29.00;22.40;;;;;;;12.14;94.91;102166.25;2089328;28;20059;-65
2021/09/03 00:44:16;;;;;;;33.07;23.50;;;;;;;12.14;95.04;102165.41;2089337;28;20028;-64
2021/09/03 00:45:16;;;;;;;35.73;23.23;;;;;;;12.14;94.83;102160.19;2081101;28;20017;-65
2021/09/03 00:46:16;;;;;;;31.83;23.40;;;;;;;12.12;94.17;102161.97;2081173;28;20029;-65
2021/09/03 00:47:17;;;;;;;32.00;21.77;;;;;;;12.10;94.35;102159.38;2089953;28;20027;-66
2021/09/03 00:48:17;;;;;;;29.20;22.92;;;;;;;12.10;94.81;102164.63;2089958;28;20043;-65
2021/09/03 00:49:17;;;;;;;31.23;23.50;;;;;;;12.07;94.80;102154.22;2089207;28;20024;-64
2021/09/03 00:50:18;;;;;;;32.73;22.03;;;;;;;12.06;94.69;102148.16;2089417;28;20029;-65
2021/09/03 00:51:18;;;;;;;28.17;22.43;;;;;;;12.05;95.24;102151.63;2090210;28;20072;-64
2021/09/03 00:52:19;;;;;;;31.80;23.77;;;;;;;12.05;94.54;102146.38;2091486;28;20028;-64
2021/09/03 00:53:20;;;;;;;32.97;23.65;;;;;;;12.05;95.07;102149.00;2091439;28;20024;-64
2021/09/03 00:54:20;;;;;;;30.80;23.00;;;;;;;12.05;94.81;102151.63;2091516;28;20013;-64
2021/09/03 00:55:20;;;;;;;31.07;22.23;;;;;;;12.06;95.19;102150.78;2091444;28;20075;-64
2021/09/03 00:56:21;;;;;;;34.20;22.47;;;;;;;12.04;94.59;102149.91;2091555;28;20031;-64
2021/09/03 00:57:22;;;;;;;32.47;24.33;;;;;;;12.04;95.23;102149.91;2091440;28;20466;-64
2021/09/03 00:58:22;;;;;;;28.75;21.98;;;;;;;12.05;94.97;102146.38;2091435;28;20021;-64
2021/09/03 00:59:23;;;;;;;37.10;25.27;;;;;;;12.05;94.80;102140.31;2091512;28;20550;-64
2021/09/03 01:00:23;;;;;;;32.97;24.57;;;;;;;12.04;94.98;102146.47;2091464;28;20028;-64
2021/09/03 01:01:23;;;;;;;35.43;22.73;;;;;;;12.03;95.16;102142.09;2091340;28;20094;-64
2021/09/03 01:02:24;;;;;;;32.37;23.53;;;;;;;12.04;95.48;102146.47;2091378;28;20562;-63
2021/09/03 01:03:24;;;;;;;32.00;22.85;;;;;;;12.02;94.94;102141.25;2091439;28;20283;-63
2021/09/03 01:04:25;;;;;;;34.67;24.50;;;;;;;12.03;95.43;102144.72;2091303;28;20029;-65
2021/09/03 01:05:25;;;;;;;31.97;21.83;;;;;;;12.01;95.53;102144.75;2091440;28;20025;-64
2021/09/03 01:06:26;;;;;;;32.38;22.95;;;;;;;12.03;94.97;102142.97;2091326;28;20279;-64
2021/09/03 01:07:27;;;;;;;28.83;22.55;;;;;;;12.06;95.14;102142.94;2091363;28;20031;-64
2021/09/03 01:08:27;;;;;;;33.63;23.45;;;;;;;12.06;95.48;102142.94;2091342;28;20021;-64
2021/09/03 01:09:27;;;;;;;30.50;24.17;;;;;;;12.05;95.28;102146.38;2091363;28;20025;-64
2021/09/03 01:10:27;;;;;;;35.40;24.47;;;;;;;12.06;95.32;102142.94;2091362;28;20048;-64
2021/09/03 01:11:28;;;;;;;32.47;23.47;;;;;;;12.06;95.25;102142.94;2091351;28;20033;-64
2021/09/03 01:12:28;;;;;;;36.20;23.77;;;;;;;12.09;95.55;102147.22;2091319;28;20122;-64
2021/09/03 01:13:28;;;;;;;29.97;22.53;;;;;;;12.06;94.84;102137.69;2091275;28;20037;-64
2021/09/03 01:14:28;;;;;;;32.30;22.90;;;;;;;12.06;95.42;102137.69;2082444;28;20029;-64
2021/09/03 01:15:29;;;;;;;32.13;23.63;;;;;;;12.05;95.11;102137.69;2082452;28;20032;-64
2021/09/03 01:16:30;;;;;;;30.00;22.92;;;;;;;12.02;95.59;102135.16;2091154;28;20045;-64
2021/09/03 01:17:30;;;;;;;31.83;22.90;;;;;;;12.00;94.86;102132.59;2091340;28;20079;-65
2021/09/03 01:18:30;;;;;;;29.70;22.77;;;;;;;11.99;94.80;102125.66;2091361;28;20045;-64
2021/09/03 01:19:31;;;;;;;33.83;23.47;;;;;;;12.00;94.89;102129.13;2091208;28;20036;-64
2021/09/03 01:20:31;;;;;;;33.92;23.60;;;;;;;11.98;95.54;102126.56;2091291;28;20029;-64
2021/09/03 01:21:33;;;;;;;34.03;23.63;;;;;;;12.00;94.82;102132.59;2091269;28;20032;-64
2021/09/03 01:22:33;;;;;;;;;;;;;;;12.01;95.04;102131.69;2091697;28;20163;-64
2021/09/03 01:23:33;;;;;;;27.95;21.52;;;;;;;12.02;95.61;102124.69;2082309;28;19909;-65
2021/09/03 01:24:33;;;;;;;34.83;22.50;;;;;;;12.03;95.67;102127.28;2082349;28;20026;-64
2021/09/03 01:25:34;;;;;;;28.63;20.80;;;;;;;12.01;95.38;102129.06;2091106;28;20072;-63
2021/09/03 01:26:35;;;;;;;29.83;21.73;;;;;;;12.00;95.07;102132.59;2091301;28;20111;-64
2021/09/03 01:27:36;;;;;;;33.17;24.02;;;;;;;11.97;95.22;102127.44;2091217;28;20074;-64
2021/09/03 01:28:36;;;;;;;36.20;25.33;;;;;;;11.97;95.00;102130.91;2091318;28;20086;-63
2021/09/03 01:29:36;;;;;;;37.80;26.13;;;;;;;11.96;95.25;102125.72;2091140;28;20029;-63
2021/09/03 01:30:37;;;;;;;33.50;24.70;;;;;;;11.94;94.87;102128.38;2091219;28;20102;-63
2021/09/03 01:31:37;;;;;;;32.57;23.70;;;;;;;11.94;95.47;102132.78;2091257;28;20024;-64
2021/09/03 01:32:38;;;;;;;33.67;24.30;;;;;;;11.95;95.57;102131.88;2091227;28;20025;-64
2021/09/03 01:33:38;;;;;;;;;;;;;;;11.93;95.29;102124.06;2091590;28;20036;-64
2021/09/03 01:34:39;;;;;;;31.58;22.52;;;;;;;11.92;94.96;102131.94;2091275;28;20269;-63
2021/09/03 01:35:39;;;;;;;32.83;21.37;;;;;;;11.90;95.40;102124.13;2090512;28;20371;-63
2021/09/03 01:36:39;;;;;;;30.57;23.43;;;;;;;11.89;95.42;102127.66;2090594;28;20025;-63
2021/09/03 01:37:39;;;;;;;31.50;23.10;;;;;;;11.87;95.10;102121.59;2091023;28;20556;-64
2021/09/03 01:38:42;;;;;;;30.87;23.20;;;;;;;11.87;95.37;102120.75;2091138;28;20052;-64
2021/09/03 01:39:42;;;;;;;31.00;23.55;;;;;;;11.86;95.38;102114.66;2091147;28;20025;-64
2021/09/03 01:40:42;;;;;;;28.67;22.40;;;;;;;11.86;95.17;102119.88;2091082;28;20020;-64
2021/09/03 01:41:43;;;;;;;33.97;22.67;;;;;;;11.85;95.23;102119.03;2082255;28;20037;-64
2021/09/03 01:42:43;;;;;;;32.70;24.17;;;;;;;11.84;95.81;102117.31;2082260;28;20026;-64
2021/09/03 01:43:43;;;;;;;31.23;23.43;;;;;;;11.84;95.72;102116.47;2091040;28;20283;-64
2021/09/03 01:44:43;;;;;;;30.60;22.17;;;;;;;11.83;95.12;102110.38;2082159;28;20061;-64
2021/09/03 01:45:44;;;;;;;27.57;21.43;;;;;;;11.83;95.18;102110.38;2082295;28;20037;-59
2021/09/03 01:46:44;;;;;;;30.17;23.60;;;;;;;11.82;95.53;102113.91;2090465;28;20037;-60
2021/09/03 01:47:44;;;;;;;33.77;21.97;;;;;;;11.80;95.49;102110.44;2091093;28;20113;-60
2021/09/03 01:48:46;;;;;;;31.20;22.77;;;;;;;11.79;95.40;102113.09;2091084;28;20445;-61
2021/09/03 01:49:46;;;;;;;;;;;;;;;11.80;95.33;102112.22;2091512;28;20061;-60
2021/09/03 01:50:47;;;;;;;30.23;21.13;;;;;;;11.80;95.18;102100.00;2091060;28;19916;-59
2021/09/03 01:51:47;;;;;;;30.65;22.17;;;;;;;11.81;95.03;102098.25;2090983;28;20025;-60
2021/09/03 01:52:47;;;;;;;32.60;21.30;;;;;;;11.82;95.37;102103.44;2082014;28;20120;-59
2021/09/03 01:53:48;;;;;;;29.43;22.70;;;;;;;11.81;95.35;102103.47;2082184;28;20351;-59
2021/09/03 01:54:48;;;;;;;30.97;23.80;;;;;;;11.81;94.99;102101.69;2091038;28;20493;-59
2021/09/03 01:55:48;;;;;;;31.10;22.17;;;;;;;11.79;95.64;102100.91;2091018;28;20025;-59
2021/09/03 01:56:48;;;;;;;30.17;23.60;;;;;;;11.77;95.93;102100.06;2091032;28;20047;-59
2021/09/03 01:57:50;;;;;;;33.63;24.20;;;;;;;11.75;95.86;102099.28;2081980;28;20092;-59
2021/09/03 01:58:50;;;;;;;33.80;24.73;;;;;;;11.74;95.45;102099.31;2082236;28;20033;-59
2021/09/03 01:59:50;;;;;;;34.37;24.53;;;;;;;11.73;94.89;102101.06;2090994;28;20063;-60
2021/09/03 02:00:50;;;;;;;31.70;24.53;;;;;;;11.74;95.76;102100.19;2091053;28;20108;-59
2021/09/03 02:01:51;;;;;;;31.17;22.80;;;;;;;11.75;95.58;102101.00;2090869;28;20083;-59
2021/09/03 02:02:51;;;;;;;31.17;24.07;;;;;;;11.77;95.41;102096.63;2090253;28;20029;-60
2021/09/03 02:03:51;;;;;;;30.93;22.90;;;;;;;11.75;95.08;102096.66;2090536;28;20098;-60
2021/09/03 02:04:52;;;;;;;41.17;24.83;;;;;;;11.75;96.14;102096.66;2090980;28;20772;-60
2021/09/03 02:05:52;;;;;;;33.20;25.27;;;;;;;11.74;95.27;102094.94;2090946;28;20447;-60
2021/09/03 02:06:52;;;;;;;35.10;25.07;;;;;;;11.74;95.37;102094.94;2090975;28;20433;-59
2021/09/03 02:07:52;;;;;;;34.47;23.87;;;;;;;11.72;95.47;102087.13;2090855;28;20025;-59
2021/09/03 02:08:53;;;;;;;30.73;23.10;;;;;;;11.73;95.13;102093.19;2090929;28;20029;-60
2021/09/03 02:09:53;;;;;;;31.93;22.67;;;;;;;11.74;95.84;102094.06;2090898;28;20025;-60
2021/09/03 02:10:53;;;;;;;27.90;23.80;;;;;;;11.74;95.35;102094.06;2090905;28;20020;-60
2021/09/03 02:11:53;;;;;;;29.77;23.20;;;;;;;11.72;95.24;102096.72;2090925;28;20082;-60
2021/09/03 02:12:54;;;;;;;31.73;22.80;;;;;;;11.72;95.88;102091.50;2090826;28;20283;-60
2021/09/03 02:13:54;;;;;;;30.30;22.97;;;;;;;11.71;95.42;102095.03;2090788;28;20036;-60
2021/09/03 02:14:54;;;;;;;31.92;22.08;;;;;;;11.70;95.07;102095.91;2090854;28;20040;-60
2021/09/03 02:15:55;;;;;;;32.20;24.17;;;;;;;11.67;95.34;102093.38;2090965;28;20465;-60
2021/09/03 02:16:55;;;;;;;31.97;23.37;;;;;;;11.68;95.75;102092.47;2090746;28;20045;-60
2021/09/03 02:17:56;;;;;;;31.97;23.27;;;;;;;11.66;95.27;102092.53;2090865;28;20528;-60
2021/09/03 02:18:58;;;;;;;28.50;22.30;;;;;;;11.66;96.00;102096.88;2090810;28;20029;-60
2021/09/03 02:19:58;;;;;;;33.97;23.58;;;;;;;11.66;95.24;102086.41;2090923;28;20025;-60
2021/09/03 02:21:00;;;;;;;32.70;22.27;;;;;;;11.66;95.91;102089.91;2090931;28;20045;-59
2021/09/03 02:22:00;;;;;;;32.55;23.70;;;;;;;11.67;95.57;102093.38;2090810;28;20053;-60
2021/09/03 02:23:00;;;;;;;29.73;23.50;;;;;;;11.65;95.82;102096.03;2090766;28;20133;-59
2021/09/03 02:24:01;;;;;;;33.63;24.03;;;;;;;11.64;96.23;102096.09;2090697;28;20027;-59
2021/09/03 02:25:01;;;;;;;31.63;22.90;;;;;;;11.63;95.90;102094.38;2090818;28;20028;-60
2021/09/03 02:26:02;;;;;;;33.70;24.00;;;;;;;11.62;95.58;102087.41;2090774;28;20021;-60
2021/09/03 02:27:02;;;;;;;33.53;23.17;;;;;;;11.61;96.20;102085.69;2090122;28;20116;-60
2021/09/03 02:28:04;;;;;;;35.42;23.63;;;;;;;11.61;95.88;102088.31;2081865;28;20399;-60
2021/09/03 02:29:04;;;;;;;34.03;24.08;;;;;;;11.59;95.62;102090.97;2082075;28;20068;-60
2021/09/03 02:30:06;;;;;;;32.57;23.70;;;;;;;11.57;95.60;102085.78;2090838;28;20028;-60
2021/09/03 02:31:06;;;;;;;31.42;23.02;;;;;;;11.56;95.60;102097.13;2090732;28;20017;-60
2021/09/03 02:32:07;;;;;;;34.43;23.43;;;;;;;11.54;95.88;102087.63;2090739;28;20025;-59
2021/09/03 02:33:07;;;;;;;28.95;23.35;;;;;;;11.53;95.63;102083.31;2090752;28;20066;-59
2021/09/03 02:34:08;;;;;;;37.10;24.77;;;;;;;11.52;96.05;102082.44;2090679;28;20031;-59
2021/09/03 02:35:08;;;;;;;30.65;23.83;;;;;;;11.51;95.95;102080.72;2090835;28;20489;-59
2021/09/03 02:36:09;;;;;;;30.42;23.73;;;;;;;11.50;95.90;102086.84;2090644;28;20025;-59
2021/09/03 02:37:09;;;;;;;34.75;23.33;;;;;;;11.51;95.85;102085.09;2090592;28;20359;-60
2021/09/03 02:38:11;;;;;;;33.67;24.57;;;;;;;11.52;95.67;102079.81;2090623;28;20103;-60
2021/09/03 02:39:11;;;;;;;34.03;23.08;;;;;;;11.50;95.77;102086.84;2090564;28;20020;-60
2021/09/03 02:40:12;;;;;;;32.77;23.10;;;;;;;11.48;95.80;102087.78;2090733;28;20666;-60
2021/09/03 02:41:12;;;;;;;33.20;24.60;;;;;;;11.48;95.66;102078.19;2090595;28;20531;-60
2021/09/03 02:42:12;;;;;;;30.90;22.70;;;;;;;11.48;96.24;102083.41;2090655;28;20016;-60
2021/09/03 02:43:13;;;;;;;32.67;23.57;;;;;;;11.45;95.93;102073.03;2090679;28;20363;-60
2021/09/03 02:44:13;;;;;;;34.60;22.77;;;;;;;11.43;96.05;102080.91;2090596;28;20035;-60
2021/09/03 02:45:13;;;;;;;31.43;22.57;;;;;;;11.43;95.90;102080.06;2090666;28;20029;-60
2021/09/03 02:46:13;;;;;;;33.37;22.67;;;;;;;11.39;95.41;102073.22;2090634;28;20521;-60
2021/09/03 02:47:14;;;;;;;30.57;23.17;;;;;;;11.39;95.85;102078.44;2090648;28;20033;-61
2021/09/03 02:48:14;;;;;;;31.57;22.87;;;;;;;11.36;95.99;102071.50;2090581;28;20090;-60
2021/09/03 02:49:14;;;;;;;30.77;22.77;;;;;;;11.36;95.87;102068.91;2090577;28;20036;-59
2021/09/03 02:50:14;;;;;;;33.00;23.10;;;;;;;11.37;96.22;102067.16;2090589;28;20242;-60
2021/09/03 02:51:15;;;;;;;37.03;23.03;;;;;;;11.37;95.85;102069.78;2090612;28;20428;-60
2021/09/03 02:52:15;;;;;;;30.00;23.73;;;;;;;11.36;96.40;102068.06;2090534;28;20100;-60
2021/09/03 02:53:16;;;;;;;33.10;24.55;;;;;;;11.35;96.31;102066.34;2081641;28;20025;-60
2021/09/03 02:54:16;;;;;;;30.20;23.20;;;;;;;11.33;96.33;102063.78;2081679;28;20020;-60
2021/09/03 02:55:16;;;;;;;33.07;23.20;;;;;;;11.34;95.87;102060.25;2089943;28;20016;-60
2021/09/03 02:56:16;;;;;;;30.57;23.53;;;;;;;11.32;96.25;102055.06;2081602;28;20059;-60
2021/09/03 02:57:17;;;;;;;31.40;22.70;;;;;;;11.32;95.71;102062.91;2081772;28;20024;-60
2021/09/03 02:58:17;;;;;;;29.83;22.90;;;;;;;11.31;95.80;102061.19;2090507;28;20028;-61
2021/09/03 02:59:17;;;;;;;30.70;23.87;;;;;;;11.31;96.07;102066.44;2090623;28;20100;-61
2021/09/03 03:00:18;;;;;;;34.67;24.67;;;;;;;11.30;96.47;102054.25;2090557;28;20021;-60
2021/09/03 03:01:18;;;;;;;31.58;24.23;;;;;;;11.29;95.87;102057.75;2089882;28;20021;-60
2021/09/03 03:02:18;;;;;;;37.10;26.93;;;;;;;11.28;96.36;102060.41;2089917;28;20021;-59
2021/09/03 03:03:19;;;;;;;31.63;24.07;;;;;;;11.25;96.17;102061.34;2090408;28;20024;-59
2021/09/03 03:04:19;;;;;;;30.00;22.93;;;;;;;11.23;96.62;102057.06;2090387;28;20032;-60
2021/09/03 03:05:23;;;;;;;32.27;23.43;;;;;;;11.22;96.70;102066.66;2090441;28;20036;-60
2021/09/03 03:06:23;;;;;;;33.50;23.08;;;;;;;11.20;95.80;102055.41;2081499;28;20033;-60
2021/09/03 03:07:24;;;;;;;30.53;23.43;;;;;;;11.19;96.03;102061.53;2081625;28;20025;-59
2021/09/03 03:08:24;;;;;;;33.87;24.17;;;;;;;11.20;96.03;102063.22;2090426;28;20017;-59
2021/09/03 03:09:24;;;;;;;31.53;23.50;;;;;;;11.23;96.11;102052.72;2090446;28;20024;-59
2021/09/03 03:10:26;;;;;;;36.83;24.73;;;;;;;11.23;96.13;102044.00;2090399;28;20501;-59
2021/09/03 03:11:26;;;;;;;30.55;23.30;;;;;;;11.23;96.36;102057.94;2090379;28;20017;-61
2021/09/03 03:12:26;;;;;;;32.63;23.90;;;;;;;11.21;95.89;102054.50;2090356;28;20021;-59
2021/09/03 03:13:28;;;;;;;31.80;23.40;;;;;;;11.20;96.66;102055.41;2090454;28;20025;-60
2021/09/03 03:14:32;;;;;;;33.22;24.50;;;;;;;11.19;96.62;102051.06;2090049;28;20017;-60
2021/09/03 03:15:32;;;;;;;37.53;24.58;;;;;;;11.18;96.79;102044.97;2090375;28;20478;-60
2021/09/03 03:16:33;;;;;;;31.63;24.30;;;;;;;11.16;96.19;102051.97;2090289;28;20077;-60
2021/09/03 03:17:33;;;;;;;31.60;24.27;;;;;;;11.16;96.60;102045.91;2090395;28;20028;-60
2021/09/03 03:18:34;;;;;;;30.48;22.77;;;;;;;11.12;96.51;102049.50;2089709;28;20183;-59
2021/09/03 03:19:34;;;;;;;33.10;24.38;;;;;;;11.11;96.29;102048.63;2089803;28;20075;-60
2021/09/03 03:20:35;;;;;;;31.97;22.63;;;;;;;11.10;96.48;102046.94;2081435;28;20029;-60
2021/09/03 03:21:35;;;;;;;27.03;21.57;;;;;;;11.09;96.58;102045.22;2081534;28;20056;-60
2021/09/03 03:22:35;;;;;;;30.07;23.40;;;;;;;11.08;96.29;102040.88;2090242;28;20040;-60
2021/09/03 03:23:35;;;;;;;32.23;23.60;;;;;;;11.07;96.35;102042.66;2090358;28;20029;-60
2021/09/03 03:24:36;;;;;;;34.43;24.63;;;;;;;11.05;96.53;102036.59;2081265;28;20025;-60
2021/09/03 03:25:37;;;;;;;32.43;23.93;;;;;;;11.03;96.99;102038.41;2081628;28;20032;-59
2021/09/03 03:26:37;;;;;;;34.00;23.63;;;;;;;11.02;96.42;102041.88;2090223;28;20423;-60
2021/09/03 03:27:38;;;;;;;35.47;24.10;;;;;;;11.02;96.29;102036.66;2090388;28;20028;-60
2021/09/03 03:28:38;;;;;;;37.17;23.85;;;;;;;11.04;96.61;102036.63;2090329;28;20039;-60
2021/09/03 03:29:41;;;;;;;32.47;23.57;;;;;;;11.02;96.19;102038.44;2081386;28;20068;-60
2021/09/03 03:30:42;;;;;;;37.42;24.77;;;;;;;10.99;96.68;102034.16;2073598;28;20052;-59
2021/09/03 03:31:42;;;;;;;36.05;24.00;;;;;;;10.99;96.84;102034.16;2081482;28;20033;-59
2021/09/03 03:32:42;;;;;;;33.37;24.10;;;;;;;10.97;96.59;102041.16;2090259;28;20016;-60
2021/09/03 03:33:42;;;;;;;32.47;24.53;;;;;;;10.96;96.76;102034.22;2090257;28;20017;-59
2021/09/03 03:34:43;;;;;;;30.77;23.63;;;;;;;10.94;96.26;102030.78;2090320;28;20044;-59
2021/09/03 03:35:43;;;;;;;29.60;23.80;;;;;;;10.93;96.48;102034.28;2089595;28;20150;-59
2021/09/03 03:36:43;;;;;;;28.03;23.27;;;;;;;10.91;96.32;102036.94;2089744;28;20083;-59
2021/09/03 03:37:43;;;;;;;33.73;23.97;;;;;;;10.89;96.71;102033.53;2090145;28;20075;-59
2021/09/03 03:38:44;;;;;;;33.77;24.77;;;;;;;10.91;96.85;102033.44;2090115;28;20028;-60
2021/09/03 03:39:44;;;;;;;32.13;22.73;;;;;;;10.90;96.79;102032.63;2089588;28;20112;-59
2021/09/03 03:40:44;;;;;;;29.10;23.27;;;;;;;10.93;96.75;102034.28;2089648;28;20029;-59
2021/09/03 03:41:45;;;;;;;31.20;23.57;;;;;;;10.92;96.85;102037.81;2081367;28;20505;-59
2021/09/03 03:42:45;;;;;;;32.50;23.63;;;;;;;10.91;96.86;102030.84;2081390;28;20052;-60
2021/09/03 03:43:45;;;;;;;36.07;25.20;;;;;;;10.92;96.65;102035.19;2090218;28;20064;-59
2021/09/03 03:44:45;;;;;;;34.60;25.13;;;;;;;10.91;97.29;102034.31;2089496;28;20033;-59
2021/09/03 03:45:46;;;;;;;35.97;22.60;;;;;;;10.90;96.93;102024.78;2089653;28;20028;-59
2021/09/03 03:46:46;;;;;;;34.07;24.13;;;;;;;10.90;97.00;102029.13;2090224;28;20463;-59
2021/09/03 03:47:46;;;;;;;31.27;22.80;;;;;;;10.88;96.97;102030.94;2090268;28;20060;-59
2021/09/03 03:48:47;;;;;;;31.13;24.03;;;;;;;10.87;96.86;102022.25;2090217;28;20052;-59
2021/09/03 03:49:47;;;;;;;33.87;24.83;;;;;;;10.86;96.82;102023.16;2090280;28;20109;-59
2021/09/03 03:50:47;;;;;;;33.77;24.20;;;;;;;10.87;96.53;102018.75;2090173;28;20040;-59
2021/09/03 03:51:47;;;;;;;36.33;25.37;;;;;;;10.87;97.32;102021.38;2090082;28;20083;-60
2021/09/03 03:52:48;;;;;;;37.13;23.40;;;;;;;10.86;96.75;102024.88;2090066;28;20410;-59
2021/09/03 03:53:48;;;;;;;29.50;23.13;;;;;;;10.87;97.09;102016.16;2090139;28;20056;-59
2021/09/03 03:54:48;;;;;;;31.93;23.33;;;;;;;10.87;97.27;102023.97;2090212;28;20490;-61
2021/09/03 03:55:49;;;;;;;33.43;24.70;;;;;;;10.86;96.93;102022.28;2089484;28;20028;-59
2021/09/03 03:56:49;;;;;;;35.13;24.30;;;;;;;10.84;96.57;102024.09;2089712;28;20053;-62
2021/09/03 03:57:49;;;;;;;37.80;26.63;;;;;;;10.85;96.67;102023.19;2090178;28;20390;-62
2021/09/03 03:58:49;;;;;;;35.63;22.90;;;;;;;10.82;96.49;102022.34;2090165;28;20047;-62
2021/09/03 03:59:50;;;;;;;34.87;25.07;;;;;;;10.84;96.79;102021.47;2090090;28;20016;-61
2021/09/03 04:00:50;;;;;;;35.77;25.03;;;;;;;10.85;96.71;102024.03;2090119;28;20394;-62
2021/09/03 04:01:50;;;;;;;33.57;25.20;;;;;;;10.84;97.27;102024.09;2089479;28;20025;-62
2021/09/03 04:02:50;;;;;;;31.73;22.60;;;;;;;10.84;97.00;102018.84;2089626;28;20059;-61
2021/09/03 04:03:51;;;;;;;31.10;23.87;;;;;;;10.84;97.04;102019.69;2090014;28;20021;-62
2021/09/03 04:04:51;;;;;;;31.73;23.90;;;;;;;10.82;96.96;102022.34;2090194;28;20025;-61
2021/09/03 04:05:51;;;;;;;37.50;25.57;;;;;;;10.82;96.98;102021.50;2090121;28;20320;-62
2021/09/03 04:06:52;;;;;;;33.20;23.77;;;;;;;10.79;96.59;102017.22;2090144;28;20025;-62
2021/09/03 04:07:52;;;;;;;31.93;24.73;;;;;;;10.79;96.78;102018.97;2089387;28;20421;-62
2021/09/03 04:08:52;;;;;;;35.17;24.17;;;;;;;10.78;96.93;102015.47;2089515;28;20091;-62
2021/09/03 04:09:52;;;;;;;35.03;24.07;;;;;;;10.77;96.50;102008.56;2090088;28;20027;-62
2021/09/03 04:10:53;;;;;;;31.00;23.30;;;;;;;10.75;96.89;102015.59;2090120;28;20025;-62
2021/09/03 04:11:54;;;;;;;29.00;23.17;;;;;;;10.77;96.86;102013.78;2090128;28;20021;-62
2021/09/03 04:12:54;;;;;;;35.15;24.42;;;;;;;10.75;97.04;102010.38;2089434;28;20025;-62
2021/09/03 04:13:54;;;;;;;33.60;23.03;;;;;;;10.73;96.53;102012.13;2081201;28;20425;-63
2021/09/03 04:14:55;;;;;;;30.40;23.73;;;;;;;10.73;97.25;102008.66;2081270;28;20021;-61
2021/09/03 04:15:55;;;;;;;35.37;23.77;;;;;;;10.74;97.36;102013.84;2090013;28;20039;-61
2021/09/03 04:16:55;;;;;;;31.42;24.25;;;;;;;10.73;96.54;102012.13;2089949;28;20049;-61
2021/09/03 04:17:56;;;;;;;31.33;24.67;;;;;;;10.73;96.90;102006.91;2090097;28;20071;-62
2021/09/03 04:18:56;;;;;;;34.57;24.83;;;;;;;10.76;97.31;102009.47;2090071;28;20104;-61
2021/09/03 04:19:56;;;;;;;32.67;25.57;;;;;;;10.75;97.25;102006.88;2090153;28;20029;-61
2021/09/03 04:20:56;;;;;;;34.57;23.50;;;;;;;10.73;97.01;102014.75;2090087;28;20051;-61
2021/09/03 04:21:57;;;;;;;31.47;24.43;;;;;;;10.74;97.09;102013.00;2090055;28;20025;-61
2021/09/03 04:22:57;;;;;;;32.93;26.30;;;;;;;10.74;97.10;102008.63;2089299;28;20479;-61
2021/09/03 04:23:57;;;;;;;32.40;23.77;;;;;;;10.75;97.43;102010.38;2089478;28;20027;-61
2021/09/03 04:24:58;;;;;;;37.13;26.07;;;;;;;10.72;97.07;102002.59;2081160;28;20029;-60
2021/09/03 04:25:58;;;;;;;40.47;25.77;;;;;;;10.72;96.63;102005.22;2081267;28;20022;-62
2021/09/03 04:26:59;;;;;;;32.07;24.83;;;;;;;10.72;97.58;102005.22;2091447;28;20043;-62
2021/09/03 04:28:00;;;;;;;37.35;25.42;;;;;;;10.72;97.54;102010.44;2091596;28;20283;-61
2021/09/03 04:29:00;;;;;;;38.10;24.30;;;;;;;10.73;96.88;102006.03;2091789;28;20021;-62
2021/09/03 04:30:01;;;;;;;32.07;23.73;;;;;;;10.75;97.02;102004.28;2091625;28;20036;-62
2021/09/03 04:31:02;;;;;;;36.13;25.88;;;;;;;10.73;97.31;102014.75;2091625;28;20104;-62
2021/09/03 04:32:02;;;;;;;36.67;25.87;;;;;;;10.71;96.85;102008.69;2091708;28;20028;-62
2021/09/03 04:33:03;;;;;;;39.70;24.95;;;;;;;10.71;96.77;102010.47;2091731;28;20330;-62
2021/09/03 04:34:03;;;;;;;36.67;24.27;;;;;;;10.71;97.61;102008.69;2091646;28;20053;-61
2021/09/03 04:35:04;;;;;;;34.20;26.50;;;;;;;10.72;97.62;102010.44;2091769;28;20478;-63